Gore Bay, Canada
Current Conditions -  °F | °C
As of 10:00 PM on Friday 21 Nov 2014 (Local Time) from CYZE Reporting Station
Overcast Overcast  
Wind Chill: 15°   Ceiling: 15000
Heat Index: 28°   Visibility: 9mi
Dew Point: 19°   Wind: 21mph
Humidity: 69%   Direction: 220°SW
Pressure: 30.14"   Gusts: 26mph
Location:  45.92°N, 82.47°W
Report Text: CYZE 220300Z AUTO 22018G23KT 9SM OVC150 M02/M07 A3014 RMK SLP218
Loading
Personal Weather Stations






























Interactive Weather Map New forecast layout! Learn more

10-Day Weather Forecast

Advertisements
Track Severe Weather on mobile